createdAt,value
2023-02-03T11:13:34.284Z,141.02
2023-02-03T11:16:03.641Z,746.40
2023-02-03T11:18:38.354Z,726.78
2023-02-03T11:21:16.743Z,42.90
2023-02-03T11:23:56.880Z,285.85
2023-02-03T11:26:28.497Z,111.65
2023-02-03T11:28:59.058Z,77.03
2023-02-03T12:12:33.664Z,60.08
2023-02-03T12:15:08.660Z,356.48
2023-02-03T12:17:45.132Z,159.07
2023-02-03T12:20:25.625Z,192.77
2023-02-03T12:22:58.575Z,533.30
2023-02-03T12:25:38.257Z,18.93
2023-02-03T12:28:27.224Z,41.17
2023-02-03T12:31:05.006Z,8.10
2023-02-03T12:33:39.225Z,8.60
2023-02-03T12:36:10.525Z,34.97
2023-02-03T12:38:42.483Z,238.80
2023-02-03T12:41:14.267Z,109.07
2023-02-03T12:43:49.112Z,159.97
2023-02-03T12:46:19.618Z,848.88
2023-02-03T12:48:53.270Z,834.03
2023-02-03T12:51:29.701Z,523.38
2023-02-03T12:54:01.218Z,832.33
2023-02-03T12:56:36.701Z,782.50
2023-02-03T12:59:07.470Z,728.65
2023-02-03T13:01:38.025Z,743.60
2023-02-03T13:04:10.921Z,797.25
2023-02-03T13:06:43.930Z,287.77
2023-02-03T13:11:52.338Z,104.43
2023-02-03T13:14:24.041Z,80.15
2023-02-03T13:16:55.704Z,368.70
2023-02-03T13:19:28.151Z,150.32
2023-02-03T13:21:56.011Z,188.02
2023-02-03T13:24:25.973Z,68.30
2023-02-03T13:27:10.632Z,27.80
2023-02-03T13:29:59.357Z,52.80
2023-02-03T13:32:39.311Z,76.70
2023-02-03T13:35:34.160Z,39.90
2023-02-03T13:38:27.067Z,27.27
2023-02-03T13:41:01.425Z,7.25
2023-02-03T13:43:38.541Z,14.65
2023-02-03T13:46:09.330Z,34.15
2023-02-03T13:48:38.899Z,48.05
2023-02-03T13:51:08.763Z,28.13
2023-02-03T13:53:39.071Z,23.90
2023-02-03T13:56:09.250Z,37.15
2023-02-03T13:58:39.551Z,9.23
2023-02-03T14:01:29.535Z,39.47
2023-02-03T14:03:58.057Z,76.85
2023-02-03T14:07:00.538Z,39.53
2023-02-03T14:09:48.038Z,62.85
2023-02-03T14:12:21.344Z,62.75
2023-02-03T14:15:04.599Z,72.20
2023-02-03T14:17:58.406Z,92.50
2023-02-03T14:20:53.211Z,76.85
2023-02-03T14:23:26.638Z,78.70
2023-02-03T14:25:57.263Z,99.18
2023-02-03T14:28:29.197Z,107.05
2023-02-03T14:31:07.913Z,102.78
2023-02-03T14:34:06.859Z,104.60
2023-02-03T14:36:50.528Z,87.88
2023-02-03T14:40:07.398Z,121.85
2023-02-03T14:43:10.226Z,126.38
2023-02-03T14:46:01.211Z,145.10
2023-02-03T14:48:47.665Z,131.50
2023-02-03T14:51:24.614Z,149.10
2023-02-03T14:54:04.214Z,117.05
2023-02-03T14:56:57.393Z,139.05
2023-02-03T14:59:29.044Z,158.38
2023-02-03T15:02:18.999Z,138.75
2023-02-03T15:04:50.326Z,148.95
2023-02-03T15:07:36.616Z,149.52
2023-02-03T15:10:05.782Z,145.90
2023-02-03T15:12:38.749Z,145.90
2023-02-03T15:15:23.508Z,156.80
2023-02-03T15:17:51.829Z,193.52
2023-02-03T15:20:34.525Z,243.07
2023-02-03T15:23:02.983Z,174.77
2023-02-03T15:25:33.011Z,211.52
2023-02-03T15:28:16.347Z,151.05
2023-02-03T15:30:44.419Z,166.27
2023-02-03T15:33:15.709Z,259.15
2023-02-03T15:35:46.646Z,142.80
2023-02-03T15:38:17.081Z,186.35
2023-02-03T15:40:46.686Z,155.45
2023-02-03T15:43:18.266Z,189.95
2023-02-03T15:45:54.966Z,142.48
2023-02-03T15:48:28.630Z,161.90
2023-02-03T15:51:01.443Z,155.43
2023-02-03T15:53:45.310Z,160.27
2023-02-03T15:56:21.804Z,206.98
2023-02-03T15:58:50.372Z,256.10
2023-02-03T16:01:21.993Z,232.75
2023-02-03T16:03:53.544Z,244.63
2023-02-03T16:06:27.416Z,191.00
2023-02-03T16:08:56.206Z,288.08
2023-02-03T16:11:26.689Z,134.45
2023-02-03T16:13:56.437Z,173.90
2023-02-03T16:16:26.731Z,232.02
2023-02-03T16:18:56.723Z,186.30
2023-02-03T16:21:35.883Z,164.60
2023-02-03T16:24:05.590Z,159.60
2023-02-03T16:26:36.567Z,156.55
2023-02-03T16:29:30.801Z,137.63
2023-02-03T16:32:16.567Z,139.40
2023-02-03T16:35:02.366Z,182.07
2023-02-03T16:37:50.800Z,116.55
2023-02-03T16:40:37.946Z,133.95
2023-02-03T16:43:24.257Z,86.20
2023-02-03T16:46:12.742Z,79.03
2023-02-03T16:48:58.506Z,60.85
2023-02-03T16:51:26.658Z,49.65
2023-02-03T16:53:56.042Z,53.63
2023-02-03T16:56:23.933Z,43.00
2023-02-03T16:58:51.842Z,50.33
2023-02-03T17:01:19.847Z,62.40
2023-02-03T17:03:47.888Z,63.80
2023-02-03T17:06:16.004Z,70.50
2023-02-03T17:08:43.938Z,64.82
2023-02-03T17:11:16.526Z,110.15
2023-02-03T17:13:44.802Z,63.42
2023-02-03T17:16:14.543Z,62.97
2023-02-03T17:18:42.455Z,61.50
2023-02-03T17:21:12.254Z,53.35
2023-02-03T17:23:40.596Z,59.42
2023-02-03T17:26:08.593Z,78.07
2023-02-03T17:28:39.945Z,64.95
2023-02-03T17:31:08.538Z,26.33
2023-02-03T17:33:36.487Z,0.90
2023-02-03T17:36:07.361Z,1.30
